Time;durP1;ratioP1;P1;durP2;ratioP2;P2;SDS_P1;SDS_P2;PMS_P1;PMS_P2;Temp;Humidity;BMP_temperature;BMP_pressure;BME280_temperature;BME280_humidity;BME280_pressure;Samples;Min_cycle;Max_cycle;Signal;HPM_P1;HPM_P2
2023/01/15 00:00:41;;;;;;;16.35;11.10;;;;;;;-1.20;82.57;147032.34;5072704;28;20028;-65
2023/01/15 00:03:06;;;;;;;16.33;11.00;;;;;;;-1.24;83.03;147023.50;5036891;28;20028;-65
2023/01/15 00:05:35;;;;;;;17.42;10.98;;;;;;;-1.17;82.24;147038.72;5063683;28;20032;-65
2023/01/15 00:08:01;;;;;;;19.52;10.88;;;;;;;-1.18;82.24;147036.16;5063977;28;20032;-65
2023/01/15 00:10:27;;;;;;;18.90;11.35;;;;;;;-1.16;81.95;147041.28;5064279;28;20040;-66
2023/01/15 00:12:52;;;;;;;14.13;9.80;;;;;;;-1.15;82.36;147043.81;5065831;28;20035;-66
2023/01/15 00:15:18;;;;;;;19.30;11.23;;;;;;;-1.11;81.65;147055.22;5083460;28;20021;-65
2023/01/15 00:17:44;;;;;;;17.98;10.50;;;;;;;-1.13;81.57;147048.88;5079321;28;20161;-66
2023/01/15 00:20:10;;;;;;;14.80;10.95;;;;;;;-1.23;81.82;147026.03;5069744;28;20079;-66
2023/01/15 00:22:35;;;;;;;16.20;11.00;;;;;;;-1.16;82.29;147042.50;5083038;28;20032;-66
2023/01/15 00:27:45;;;;;;;16.27;10.48;;;;;;;-1.08;80.90;147061.59;5071859;28;20155;-66
2023/01/15 00:30:13;;;;;;;13.90;10.10;;;;;;;-1.23;81.94;147024.75;5070982;28;20029;-65
2023/01/15 00:32:43;;;;;;;15.00;10.93;;;;;;;-1.07;81.19;147065.41;5083850;28;20044;-66
2023/01/15 00:35:18;;;;;;;16.42;10.18;;;;;;;-1.12;81.34;147052.69;5083525;28;20036;-67
2023/01/15 00:37:43;;;;;;;18.33;10.27;;;;;;;-1.10;81.06;147056.50;5063809;28;20052;-67
2023/01/15 00:40:10;;;;;;;20.30;10.90;;;;;;;-1.10;80.98;147057.78;5078340;28;20070;-65
2023/01/15 00:42:35;;;;;;;18.67;10.57;;;;;;;-1.06;80.93;147067.91;5083625;28;20039;-66
2023/01/15 00:45:08;;;;;;;16.75;10.80;;;;;;;-1.23;81.59;147026.03;5083848;28;20056;-66
2023/01/15 00:47:35;;;;;;;15.63;9.70;;;;;;;-1.28;81.70;147013.31;5083761;28;20055;-66
2023/01/15 00:50:01;;;;;;;19.20;10.05;;;;;;;-1.28;81.88;147013.31;5083358;28;20100;-65
2023/01/15 00:52:26;;;;;;;19.33;10.30;;;;;;;-1.12;82.03;147051.44;5083451;28;20104;-65
2023/01/15 00:54:52;;;;;;;21.23;11.20;;;;;;;-1.22;81.75;147028.56;5070771;28;20025;-66
2023/01/15 00:57:18;;;;;;;16.08;10.70;;;;;;;-1.37;82.36;146990.44;5071300;28;20194;-67
2023/01/15 00:59:44;;;;;;;14.25;9.90;;;;;;;-1.32;81.47;147003.16;5083397;28;20118;-65
2023/01/15 01:02:10;;;;;;;14.60;9.88;;;;;;;-1.30;81.76;147008.22;5083079;28;20066;-66
2023/01/15 01:04:35;;;;;;;16.23;10.45;;;;;;;-1.12;82.41;147051.44;5083198;28;20021;-66
2023/01/15 01:07:01;;;;;;;16.88;10.23;;;;;;;-1.07;81.65;147064.09;5083396;28;20205;-66
2023/01/15 01:09:26;;;;;;;17.52;10.38;;;;;;;-1.24;82.01;147023.50;5083172;28;20078;-66
2023/01/15 01:11:52;;;;;;;17.55;10.35;;;;;;;-1.13;81.97;147050.13;5083151;28;20529;-66
2023/01/15 01:14:17;;;;;;;15.25;10.07;;;;;;;-1.08;81.38;147061.59;5065048;28;20032;-66
2023/01/15 01:16:43;;;;;;;17.95;10.93;;;;;;;-1.08;80.87;147061.59;5083020;28;20031;-66
2023/01/15 01:19:18;;;;;;;22.05;10.23;;;;;;;-1.23;81.60;147024.75;5083131;28;20296;-65
2023/01/15 01:21:44;;;;;;;15.80;10.30;;;;;;;-1.00;81.69;147081.88;5083048;28;20244;-65
2023/01/15 01:24:11;;;;;;;14.65;9.98;;;;;;;-1.01;81.13;147078.06;5082605;28;20024;-66
2023/01/15 01:26:38;;;;;;;17.38;10.02;;;;;;;-1.10;81.71;147056.50;5067990;28;20021;-64
2023/01/15 01:29:03;;;;;;;15.43;10.70;;;;;;;-0.96;81.40;147090.78;5064967;28;20103;-63
2023/01/15 01:31:29;;;;;;;16.75;10.02;;;;;;;-1.03;80.80;147073.00;5082339;28;20134;-65
2023/01/15 01:33:56;;;;;;;18.90;10.15;;;;;;;-1.06;81.29;147067.91;5064388;28;20020;-67
2023/01/15 01:36:28;;;;;;;16.67;10.38;;;;;;;-1.18;81.12;147036.16;5070813;28;20219;-64
2023/01/15 01:38:53;;;;;;;22.55;10.90;;;;;;;-1.44;81.75;146972.66;5082625;28;20028;-65
2023/01/15 01:41:19;;;;;;;22.75;10.85;;;;;;;-1.34;81.70;146996.81;5081586;28;20032;-65
2023/01/15 01:43:56;;;;;;;17.05;10.00;;;;;;;-1.30;82.54;147006.97;5082413;28;20252;-66
2023/01/15 01:46:23;;;;;;;25.30;10.95;;;;;;;-1.38;81.96;146987.94;5082225;28;20044;-66
2023/01/15 01:49:12;;;;;;;17.92;10.25;;;;;;;-1.20;81.61;147031.09;5082785;28;20055;-66
2023/01/15 01:52:01;;;;;;;15.35;9.70;;;;;;;-1.18;82.02;147036.16;5082244;28;20052;-66
2023/01/15 01:54:30;;;;;;;19.63;10.88;;;;;;;-1.21;81.59;147029.84;5073531;28;20040;-66
2023/01/15 01:56:56;;;;;;;16.73;10.40;;;;;;;-1.14;81.66;147046.31;5046058;28;20040;-66
2023/01/15 01:59:24;;;;;;;17.80;10.30;;;;;;;-1.21;81.74;147029.84;5082658;28;20092;-66
2023/01/15 02:01:50;;;;;;;23.27;11.93;;;;;;;-1.26;82.04;147018.38;5062517;28;20027;-65
2023/01/15 02:04:19;;;;;;;19.92;11.60;;;;;;;-1.24;81.78;147023.50;5077331;28;20059;-65
2023/01/15 02:06:44;;;;;;;21.02;10.50;;;;;;;-1.22;82.27;147028.56;5071927;28;20297;-65
2023/01/15 02:09:10;;;;;;;19.63;10.77;;;;;;;-1.16;81.63;147041.28;5068636;28;20064;-66
2023/01/15 02:11:36;;;;;;;17.77;9.85;;;;;;;-1.18;82.08;147036.16;5082392;28;20091;-65
2023/01/15 02:14:08;;;;;;;19.05;10.60;;;;;;;-1.13;81.33;147050.13;5082076;28;20063;-65
2023/01/15 02:16:48;;;;;;;21.05;10.27;;;;;;;-1.33;81.73;146999.34;5082270;28;20040;-65
2023/01/15 02:19:38;;;;;;;22.27;10.45;;;;;;;-1.25;81.18;147019.69;5080887;28;20036;-65
2023/01/15 02:22:45;;;;;;;17.38;10.07;;;;;;;-1.26;81.42;147018.38;5082068;28;20028;-65
2023/01/15 02:25:13;;;;;;;17.33;10.65;;;;;;;-1.20;81.35;147032.34;5076776;28;20032;-66
2023/01/15 02:27:46;;;;;;;18.92;10.85;;;;;;;-1.39;82.99;146985.38;5072154;28;20044;-67
2023/01/15 02:30:17;;;;;;;22.00;10.80;;;;;;;-1.23;81.50;147026.03;5084209;28;20040;-66
2023/01/15 02:32:54;;;;;;;23.40;9.90;;;;;;;-1.21;82.10;147029.84;5086157;28;20032;-66
2023/01/15 02:35:44;;;;;;;21.98;10.95;;;;;;;-1.27;82.00;147014.56;5085919;28;20020;-66
2023/01/15 02:38:15;;;;;;;20.77;10.88;;;;;;;-1.28;81.87;147012.06;5085538;28;20170;-66
2023/01/15 02:40:42;;;;;;;15.13;10.50;;;;;;;-1.24;80.89;147023.50;5086088;28;20224;-66
2023/01/15 02:43:09;;;;;;;24.90;11.18;;;;;;;-1.20;82.23;147031.09;5085784;28;20036;-66
2023/01/15 02:45:38;;;;;;;17.88;11.00;;;;;;;-1.28;82.33;147012.06;5085778;28;20079;-66
2023/01/15 02:48:10;;;;;;;20.02;11.45;;;;;;;-1.38;81.77;146987.94;5085834;28;20025;-66
2023/01/15 02:50:50;;;;;;;23.88;11.10;;;;;;;-1.31;81.85;147005.72;5085877;28;20031;-66
2023/01/15 02:53:25;;;;;;;22.77;10.55;;;;;;;-1.57;82.88;146942.22;5085729;28;20040;-66
2023/01/15 02:55:55;;;;;;;23.77;11.35;;;;;;;-1.46;82.35;146967.59;5085764;28;20079;-67
2023/01/15 02:58:27;;;;;;;18.92;11.05;;;;;;;-1.36;82.10;146991.75;5071930;28;20045;-67
2023/01/15 03:00:56;;;;;;;22.02;11.02;;;;;;;-1.32;82.88;147003.16;5077312;28;20293;-66
2023/01/15 03:03:40;;;;;;;20.48;10.55;;;;;;;-1.22;82.77;147028.56;5085430;28;20305;-66
2023/01/15 03:06:24;;;;;;;20.50;12.05;;;;;;;-1.22;83.09;147027.28;5084944;28;20052;-66
2023/01/15 03:08:49;;;;;;;21.80;11.13;;;;;;;-1.10;82.90;147057.78;5085459;28;20020;-66
2023/01/15 03:11:20;;;;;;;19.00;10.90;;;;;;;-1.03;81.42;147073.00;5085432;28;20025;-66
2023/01/15 03:13:50;;;;;;;23.48;11.43;;;;;;;-1.20;81.95;147031.09;5085388;28;20027;-65
2023/01/15 03:16:34;;;;;;;22.17;11.52;;;;;;;-1.19;82.41;147033.66;5085213;28;20029;-65
2023/01/15 03:19:05;;;;;;;21.55;11.30;;;;;;;-1.27;82.38;147014.56;5084966;28;20297;-64
2023/01/15 03:22:04;;;;;;;21.13;10.65;;;;;;;-1.26;81.40;147018.38;5085183;28;20036;-65
2023/01/15 03:24:34;;;;;;;18.95;11.18;;;;;;;-1.34;81.79;146998.09;5085049;28;20039;-65
2023/01/15 03:27:01;;;;;;;25.75;12.50;;;;;;;-1.13;82.53;147050.13;5051428;28;20039;-65
2023/01/15 03:29:31;;;;;;;17.23;10.77;;;;;;;-1.16;82.53;147041.28;5085361;28;20268;-66
2023/01/15 03:31:59;;;;;;;21.58;10.25;;;;;;;-1.07;81.82;147065.41;5083975;28;20119;-66
2023/01/15 03:34:30;;;;;;;18.73;11.18;;;;;;;-1.01;81.72;147079.38;5084897;28;20039;-66
2023/01/15 03:36:55;;;;;;;21.60;11.07;;;;;;;-1.07;81.95;147064.09;5067084;28;20029;-65
2023/01/15 03:39:21;;;;;;;19.65;11.07;;;;;;;-1.00;81.98;147080.63;5084332;28;20365;-66
2023/01/15 03:42:42;;;;;;;19.60;11.40;;;;;;;-1.13;81.67;147050.13;5083670;28;20079;-65
2023/01/15 03:45:26;;;;;;;24.20;12.05;;;;;;;-1.10;82.04;147056.50;5002878;28;20077;-66
2023/01/15 03:48:07;;;;;;;23.55;11.63;;;;;;;-1.19;81.56;147034.91;5064258;28;20067;-67
2023/01/15 03:50:46;;;;;;;23.75;10.60;;;;;;;-1.12;82.19;147051.44;5064629;28;20068;-65
2023/01/15 03:53:17;;;;;;;19.73;10.65;;;;;;;-1.05;82.72;147070.47;5064590;28;20037;-65
2023/01/15 03:56:07;;;;;;;24.92;12.27;;;;;;;-1.20;82.13;147032.34;5064572;28;20025;-66
2023/01/15 03:58:41;;;;;;;20.33;10.63;;;;;;;-1.28;81.86;147013.31;5064236;28;20017;-66
2023/01/15 04:01:10;;;;;;;22.80;11.70;;;;;;;-1.18;81.37;147037.47;5058488;28;20344;-66
2023/01/15 04:03:36;;;;;;;22.90;11.73;;;;;;;-1.26;82.55;147018.38;5063996;28;20074;-66
2023/01/15 04:06:03;;;;;;;20.25;10.93;;;;;;;-1.28;82.02;147012.06;5064165;28;20025;-65
2023/01/15 04:08:32;;;;;;;21.45;11.23;;;;;;;-1.37;82.62;146990.44;5064386;28;20051;-66
2023/01/15 04:11:00;;;;;;;21.45;10.95;;;;;;;-1.19;82.48;147034.91;5058440;28;20039;-66
2023/01/15 04:13:26;;;;;;;18.67;11.02;;;;;;;-1.31;82.11;147004.41;5064085;28;20025;-66
2023/01/15 04:15:52;;;;;;;25.65;11.48;;;;;;;-1.16;82.14;147042.50;5064365;28;20017;-66
2023/01/15 04:18:18;;;;;;;25.42;11.70;;;;;;;-1.28;82.16;147013.31;5046127;28;20254;-66
2023/01/15 04:20:44;;;;;;;20.58;10.68;;;;;;;-1.32;82.62;147003.16;5064147;28;20070;-66
2023/01/15 04:23:10;;;;;;;24.52;11.05;;;;;;;-1.13;81.90;147050.13;5046288;28;20083;-66
2023/01/15 04:25:36;;;;;;;29.42;12.45;;;;;;;-1.10;82.87;147056.50;5063929;28;20025;-66
2023/01/15 04:28:02;;;;;;;24.77;10.93;;;;;;;-1.08;81.60;147061.59;5051572;28;20029;-67
2023/01/15 04:30:27;;;;;;;21.60;11.68;;;;;;;-1.15;81.68;147045.06;5051193;28;20021;-66
2023/01/15 04:32:53;;;;;;;26.33;11.20;;;;;;;-0.97;81.95;147089.53;5047159;28;20100;-67
2023/01/15 04:35:19;;;;;;;17.58;10.35;;;;;;;-1.22;82.65;147027.28;5063616;28;20048;-66
2023/01/15 04:37:45;;;;;;;19.85;11.35;;;;;;;-1.12;82.70;147051.44;5062956;28;20028;-66
2023/01/15 04:44:05;;;;;;;24.75;11.90;;;;;;;-1.09;82.17;147059.03;5063335;28;20033;-66
2023/01/15 04:45:44;;;;;;;28.17;12.55;;;;;;;-1.03;82.76;147074.28;5083456;28;20192;-66
2023/01/15 04:48:11;;;;;;;20.70;11.43;;;;;;;-0.95;83.38;147094.59;5083473;28;20090;-65
2023/01/15 04:50:37;;;;;;;24.00;11.60;;;;;;;-1.01;81.95;147079.38;5083390;28;20072;-65
2023/01/15 04:53:03;;;;;;;29.60;12.05;;;;;;;-1.27;83.07;147014.56;5083134;28;20078;-65
2023/01/15 04:55:29;;;;;;;23.25;11.45;;;;;;;-1.09;83.02;147059.03;5064974;28;20056;-65
2023/01/15 04:57:55;;;;;;;25.42;11.18;;;;;;;-1.08;82.62;147061.59;5083406;28;20035;-64
2023/01/15 05:00:22;;;;;;;25.92;11.63;;;;;;;-0.93;83.34;147099.66;5082397;28;20036;-64
2023/01/15 05:02:48;;;;;;;29.13;12.48;;;;;;;-0.84;82.58;147121.31;5065406;28;20050;-65
2023/01/15 05:05:15;;;;;;;25.40;12.10;;;;;;;-0.81;82.20;147127.63;5083100;28;20312;-66
2023/01/15 05:07:40;;;;;;;22.75;11.68;;;;;;;-0.91;82.48;147103.53;5082642;28;20020;-66
2023/01/15 05:10:06;;;;;;;23.10;12.13;;;;;;;-0.89;82.13;147109.84;5082848;28;20084;-67
2023/01/15 05:12:32;;;;;;;25.70;12.02;;;;;;;-0.92;82.99;147100.97;5075187;28;20037;-66
2023/01/15 05:14:58;;;;;;;30.13;12.10;;;;;;;-1.10;82.37;147056.50;5065803;28;20070;-65
2023/01/15 05:17:23;;;;;;;29.20;12.07;;;;;;;-1.10;83.20;147057.78;5083264;28;20024;-65
2023/01/15 05:19:49;;;;;;;28.60;12.15;;;;;;;-1.03;83.96;147074.28;5083004;28;20074;-66
2023/01/15 05:22:14;;;;;;;23.63;12.30;;;;;;;-1.06;84.62;147067.91;5082225;28;20028;-65
2023/01/15 05:24:40;;;;;;;29.17;12.60;;;;;;;-1.36;85.64;146993.00;5081523;28;20032;-66
2023/01/15 05:27:05;;;;;;;27.98;13.48;;;;;;;-1.20;85.17;147031.09;5066436;28;20056;-67
2023/01/15 05:29:31;;;;;;;29.35;11.95;;;;;;;-1.02;85.53;147076.81;5082422;28;20027;-67
2023/01/15 05:31:56;;;;;;;23.08;12.32;;;;;;;-1.13;85.01;147050.13;5082401;28;20031;-65
2023/01/15 05:34:22;;;;;;;24.40;12.50;;;;;;;-1.36;86.48;146991.75;5082423;28;20036;-66
2023/01/15 05:36:48;;;;;;;27.05;13.02;;;;;;;-1.26;86.80;147017.13;5082083;28;20075;-66
2023/01/15 05:39:14;;;;;;;29.73;12.82;;;;;;;-1.41;86.82;146980.28;5082470;28;20024;-66
2023/01/15 05:41:49;;;;;;;27.20;13.35;;;;;;;-1.46;88.08;146967.59;5064662;28;20048;-66
2023/01/15 05:44:40;;;;;;;33.80;14.38;;;;;;;-1.34;87.67;146998.09;5081791;28;20309;-66
2023/01/15 05:47:06;;;;;;;29.35;14.13;;;;;;;-1.41;87.24;146980.28;5061260;28;20045;-66
2023/01/15 05:49:33;;;;;;;31.63;14.25;;;;;;;-1.39;87.60;146985.38;5077934;28;20032;-66
2023/01/15 05:52:00;;;;;;;27.52;14.60;;;;;;;-1.50;87.38;146958.69;5082443;28;20033;-66
2023/01/15 05:54:29;;;;;;;33.92;14.40;;;;;;;-1.66;88.31;146919.34;5081906;28;20024;-67
2023/01/15 05:56:55;;;;;;;35.05;14.95;;;;;;;-1.59;89.34;146937.13;5081074;28;20066;-68
2023/01/15 05:59:24;;;;;;;30.98;14.18;;;;;;;-1.47;88.92;146965.06;5082112;28;20098;-67
2023/01/15 06:01:50;;;;;;;31.15;14.32;;;;;;;-1.50;88.05;146958.69;5082357;28;20025;-66
2023/01/15 06:04:19;;;;;;;27.73;14.48;;;;;;;-1.52;88.45;146953.63;5081242;28;20365;-68
2023/01/15 06:06:46;;;;;;;29.13;13.63;;;;;;;-1.31;87.84;147005.72;5081878;28;20032;-65
2023/01/15 06:09:11;;;;;;;29.77;13.65;;;;;;;-1.24;87.38;147023.50;5081651;28;20052;-66
2023/01/15 06:11:37;;;;;;;26.27;13.18;;;;;;;-1.27;87.12;147015.88;5082061;28;20201;-68
2023/01/15 06:14:03;;;;;;;38.72;15.18;;;;;;;-1.41;87.51;146981.56;5081887;28;20089;-65
2023/01/15 06:16:28;;;;;;;30.88;13.93;;;;;;;-1.41;87.00;146980.28;5082096;28;20024;-66
2023/01/15 06:18:54;;;;;;;25.75;12.77;;;;;;;-1.48;87.21;146963.81;5064375;28;20039;-66
2023/01/15 06:21:20;;;;;;;33.70;13.95;;;;;;;-1.60;87.19;146933.31;5070213;28;20041;-67
2023/01/15 06:23:45;;;;;;;32.92;13.63;;;;;;;-1.43;87.41;146976.47;5072605;28;20252;-66
2023/01/15 06:26:14;;;;;;;27.60;12.27;;;;;;;-1.32;86.43;147001.91;5071484;28;20048;-66
2023/01/15 06:28:40;;;;;;;29.67;12.40;;;;;;;-1.21;86.67;147029.84;5072274;28;20540;-66
2023/01/15 06:31:08;;;;;;;28.27;13.02;;;;;;;-1.24;85.93;147022.19;5073197;28;20028;-67
2023/01/15 06:33:34;;;;;;;32.10;13.55;;;;;;;-1.32;85.36;147003.16;5073360;28;20033;-67
2023/01/15 06:36:09;;;;;;;33.78;13.68;;;;;;;-1.46;85.35;146967.59;5073005;28;20079;-66
2023/01/15 06:38:34;;;;;;;27.17;13.23;;;;;;;-1.43;85.75;146975.22;5069668;28;20032;-67
2023/01/15 06:41:02;;;;;;;32.67;13.10;;;;;;;-1.23;85.21;147024.75;5071643;28;20029;-66
2023/01/15 06:48:57;;;;;;;23.70;13.23;;;;;;;-1.28;85.10;147013.31;5070148;28;20198;-67
2023/01/15 06:51:23;;;;;;;34.15;13.32;;;;;;;-1.11;84.03;147053.94;5072543;28;20029;-66
2023/01/15 06:53:49;;;;;;;29.75;12.18;;;;;;;-1.12;83.64;147052.69;5070262;28;20220;-67
2023/01/15 06:56:14;;;;;;;27.45;12.30;;;;;;;-1.01;84.49;147078.06;5073776;28;20020;-67
2023/01/15 06:58:44;;;;;;;31.20;13.27;;;;;;;-1.18;84.05;147037.47;5074336;28;20028;-67
2023/01/15 07:01:11;;;;;;;29.77;13.13;;;;;;;-1.07;84.17;147064.09;5071402;28;20044;-66
2023/01/15 07:03:37;;;;;;;40.15;13.35;;;;;;;-0.98;83.57;147087.00;5072033;28;20032;-66
2023/01/15 07:06:10;;;;;;;34.97;13.75;;;;;;;-1.16;83.61;147042.50;5073529;28;20060;-67
2023/01/15 07:08:37;;;;;;;34.03;14.00;;;;;;;-1.14;83.82;147047.63;5071609;28;20323;-66
2023/01/15 07:11:07;;;;;;;27.02;12.88;;;;;;;-0.98;83.68;147087.00;5074534;28;20063;-66
2023/01/15 07:13:33;;;;;;;32.88;12.70;;;;;;;-0.97;83.41;147089.53;5072669;28;20031;-66
2023/01/15 07:16:01;;;;;;;29.20;12.57;;;;;;;-1.06;83.57;147066.66;5074919;28;20024;-67
2023/01/15 07:18:28;;;;;;;26.52;12.82;;;;;;;-1.20;82.73;147031.09;5075492;28;20548;-67
2023/01/15 07:20:56;;;;;;;29.23;13.23;;;;;;;-1.26;84.22;147018.38;5069211;28;20033;-67
2023/01/15 07:23:23;;;;;;;32.85;13.57;;;;;;;-1.07;83.48;147065.41;5085512;28;20093;-66
2023/01/15 07:25:51;;;;;;;31.00;13.65;;;;;;;-1.05;83.21;147069.22;5085189;28;20223;-66
2023/01/15 07:28:17;;;;;;;32.03;13.40;;;;;;;-1.11;82.26;147053.94;5072258;28;20076;-67
2023/01/15 07:30:42;;;;;;;26.83;12.77;;;;;;;-1.20;82.88;147031.09;5052565;28;20324;-65
2023/01/15 07:33:08;;;;;;;30.08;14.30;;;;;;;-0.92;83.16;147102.22;5081139;28;20107;-65
2023/01/15 07:35:35;;;;;;;24.58;13.35;;;;;;;-0.96;83.02;147090.78;5085457;28;20060;-67
2023/01/15 07:38:01;;;;;;;27.63;13.57;;;;;;;-0.84;82.52;147121.31;5066482;28;20037;-66
2023/01/15 07:40:27;;;;;;;32.58;14.10;;;;;;;-0.89;81.72;147109.84;5078787;28;20036;-66
2023/01/15 07:51:10;;;;;;;27.38;14.02;;;;;;;-0.75;82.79;147144.16;5077645;28;20036;-66
2023/01/15 07:53:36;;;;;;;26.65;14.07;;;;;;;-0.90;82.67;147107.31;5066178;28;20028;-66
2023/01/15 07:56:02;;;;;;;29.15;13.00;;;;;;;-0.87;81.34;147114.94;5077988;28;20055;-67
2023/01/15 07:58:27;;;;;;;24.58;13.52;;;;;;;-1.03;81.67;147073.00;5073864;28;20244;-67
2023/01/15 08:00:53;;;;;;;28.83;13.77;;;;;;;-0.84;80.97;147121.31;5073141;28;20016;-66
2023/01/15 08:03:18;;;;;;;26.75;13.02;;;;;;;-0.88;81.91;147112.38;5075054;28;20632;-68
2023/01/15 08:05:44;;;;;;;27.88;14.10;;;;;;;-0.77;82.06;147137.78;5082588;28;20025;-68
2023/01/15 08:08:16;;;;;;;25.02;13.13;;;;;;;-0.96;81.95;147092.06;5083781;28;20305;-66
2023/01/15 08:16:11;;;;;;;29.52;13.63;;;;;;;-0.87;81.12;147114.94;5074456;28;20276;-65
2023/01/15 08:18:37;;;;;;;28.88;13.98;;;;;;;-0.68;80.65;147160.69;5074814;28;20017;-66
2023/01/15 08:21:03;;;;;;;30.90;14.35;;;;;;;-0.81;81.33;147128.91;5056276;28;20017;-67
2023/01/15 08:23:28;;;;;;;28.25;13.45;;;;;;;-0.90;81.71;147106.03;5074093;28;20074;-65
2023/01/15 08:25:54;;;;;;;28.25;14.27;;;;;;;-0.90;82.34;147106.03;5079528;28;20263;-68
2023/01/15 08:28:19;;;;;;;34.55;13.63;;;;;;;-0.65;81.41;147167.03;5080044;28;20095;-67
2023/01/15 08:30:45;;;;;;;25.02;13.40;;;;;;;-0.93;81.33;147099.66;5083820;28;20024;-67
2023/01/15 08:33:10;;;;;;;24.23;13.57;;;;;;;-0.68;80.83;147160.69;5079671;28;20041;-67
2023/01/15 08:35:36;;;;;;;29.02;13.82;;;;;;;-0.65;80.69;147168.28;5063891;28;20056;-66
2023/01/15 08:38:06;;;;;;;30.65;12.90;;;;;;;-0.81;80.50;147128.91;5081914;28;20028;-66
2023/01/15 08:40:31;;;;;;;29.65;13.77;;;;;;;-0.68;80.97;147159.38;5083813;28;20270;-66
2023/01/15 08:42:57;;;;;;;27.52;13.93;;;;;;;-0.81;80.47;147127.63;5083770;28;20051;-65
2023/01/15 08:45:23;;;;;;;26.75;13.88;;;;;;;-0.80;81.22;147130.16;5083114;28;20047;-65
2023/01/15 08:47:48;;;;;;;25.00;13.50;;;;;;;-0.70;80.11;147156.88;5083511;28;20024;-66
2023/01/15 08:50:14;;;;;;;26.02;13.07;;;;;;;-0.79;79.97;147133.97;5083039;28;20062;-65
2023/01/15 08:52:40;;;;;;;28.42;14.35;;;;;;;-0.63;80.49;147173.34;5083478;28;20039;-64
2023/01/15 08:55:10;;;;;;;25.50;12.77;;;;;;;-0.63;79.95;147173.34;5083051;28;20538;-65
2023/01/15 08:57:37;;;;;;;40.97;14.57;;;;;;;-0.71;80.27;147154.31;5058655;28;20041;-66
2023/01/15 09:00:04;;;;;;;28.05;13.23;;;;;;;-0.76;80.56;147140.34;5066711;28;20377;-66
2023/01/15 09:02:30;;;;;;;26.50;13.45;;;;;;;-0.72;80.15;147151.75;5083299;28;20082;-64
2023/01/15 09:04:55;;;;;;;27.20;12.82;;;;;;;-0.72;80.59;147150.50;5082994;28;20031;-65
2023/01/15 09:07:21;;;;;;;25.67;13.48;;;;;;;-0.67;80.93;147163.22;5064969;28;20023;-65
2023/01/15 09:09:46;;;;;;;21.55;12.50;;;;;;;-0.85;80.88;147117.50;5083152;28;20170;-64
2023/01/15 09:12:12;;;;;;;27.27;13.98;;;;;;;-0.76;81.22;147141.59;5073000;28;20218;-64
2023/01/15 09:14:38;;;;;;;24.05;12.93;;;;;;;-0.65;80.36;147167.03;5082714;28;20096;-65
2023/01/15 09:17:04;;;;;;;28.30;12.88;;;;;;;-0.74;80.01;147145.41;5082643;28;20100;-64
2023/01/15 09:19:29;;;;;;;21.13;12.07;;;;;;;-0.74;80.80;147145.41;5082727;28;20029;-64
2023/01/15 09:21:55;;;;;;;32.58;13.45;;;;;;;-0.66;79.79;147164.50;5082820;28;20336;-65
2023/01/15 09:24:21;;;;;;;32.88;13.65;;;;;;;-0.57;79.55;147188.63;5082333;28;20210;-65
2023/01/15 09:26:47;;;;;;;29.17;13.10;;;;;;;-0.67;79.43;147163.22;5065218;28;20025;-65
2023/01/15 09:29:12;;;;;;;28.67;14.20;;;;;;;-0.56;80.47;147191.13;5081621;28;20094;-65
2023/01/15 09:31:38;;;;;;;21.98;12.98;;;;;;;-0.70;79.38;147155.56;5078575;28;20127;-65
2023/01/15 09:34:03;;;;;;;27.58;12.93;;;;;;;-0.64;79.87;147170.84;5082155;28;20265;-66
2023/01/15 09:36:32;;;;;;;22.70;12.93;;;;;;;-0.69;79.67;147158.13;5082499;28;20092;-64
2023/01/15 09:38:59;;;;;;;27.67;12.88;;;;;;;-0.63;80.21;147172.09;5063638;28;20165;-64
2023/01/15 09:44:47;;;;;;;26.95;13.07;;;;;;;-0.53;79.31;147197.50;5081369;28;20211;-64
2023/01/15 09:47:29;;;;;;;28.67;13.23;;;;;;;-0.50;79.31;147205.13;5082271;28;20090;-64
2023/01/15 09:50:26;;;;;;;26.35;12.85;;;;;;;-0.55;80.29;147193.69;5082465;28;20033;-64
2023/01/15 09:52:52;;;;;;;25.67;12.27;;;;;;;-0.52;80.45;147200.06;5063893;28;20206;-65
2023/01/15 09:55:24;;;;;;;24.95;12.63;;;;;;;-0.55;79.36;147193.69;5070396;28;20031;-66
2023/01/15 09:57:51;;;;;;;;;;;;;;;-0.64;79.89;147169.56;5070339;28;20024;-64
2023/01/15 10:00:20;;;;;;;28.65;12.25;;;;;;;-0.64;79.81;147170.84;5080816;28;19995;-64
2023/01/15 10:02:52;;;;;;;26.08;12.50;;;;;;;-0.70;79.05;147155.56;5082417;28;20063;-65
2023/01/15 10:05:27;;;;;;;23.55;12.52;;;;;;;-0.70;79.73;147156.88;5081965;28;20111;-66
2023/01/15 10:08:14;;;;;;;25.20;12.50;;;;;;;-0.61;78.83;147177.22;5082230;28;20131;-65
2023/01/15 10:10:49;;;;;;;27.35;12.88;;;;;;;-0.62;79.65;147175.91;5082198;28;20040;-64
2023/01/15 10:13:38;;;;;;;18.88;11.35;;;;;;;-0.58;78.17;147186.09;5081931;28;20024;-65
2023/01/15 10:16:05;;;;;;;23.73;11.80;;;;;;;-0.76;79.17;147141.59;5081912;28;20032;-65
2023/01/15 10:18:31;;;;;;;21.17;11.27;;;;;;;-0.46;79.52;147214.03;5082361;28;20032;-65
2023/01/15 10:21:07;;;;;;;22.30;11.45;;;;;;;-0.49;78.89;147206.44;5082005;28;20332;-65
2023/01/15 10:23:33;;;;;;;27.15;11.65;;;;;;;-0.37;78.37;147236.88;5061773;28;20090;-65
2023/01/15 10:26:20;;;;;;;25.52;11.40;;;;;;;-0.47;78.67;147211.47;5078582;28;20032;-64
2023/01/15 10:29:04;;;;;;;23.02;11.60;;;;;;;-0.52;79.96;147201.31;5067146;28;20029;-64
2023/01/15 10:31:50;;;;;;;23.45;11.75;;;;;;;-0.42;78.44;147224.22;5076824;28;20056;-67
2023/01/15 10:35:00;;;;;;;17.95;10.77;;;;;;;-0.58;79.43;147186.09;5070934;28;20128;-65
2023/01/15 10:37:31;;;;;;;23.25;11.15;;;;;;;-0.42;78.79;147224.22;5073944;28;20032;-64
2023/01/15 10:40:30;;;;;;;24.13;10.60;;;;;;;-0.37;78.53;147238.19;5081832;28;20068;-66
2023/01/15 10:43:16;;;;;;;17.85;10.68;;;;;;;-0.40;78.62;147229.28;5081331;28;20094;-64
2023/01/15 10:45:45;;;;;;;18.88;9.93;;;;;;;-0.57;77.63;147188.63;5076914;28;20051;-65
2023/01/15 10:48:13;;;;;;;18.23;10.00;;;;;;;-0.24;78.00;147268.72;5063387;28;20107;-65
2023/01/15 10:50:39;;;;;;;18.85;9.82;;;;;;;-0.58;77.73;147184.81;5083427;28;20028;-65
2023/01/15 10:53:10;;;;;;;16.40;10.32;;;;;;;-0.54;78.01;147195.00;5085593;28;20027;-65
2023/01/15 10:55:43;;;;;;;25.65;10.63;;;;;;;-0.65;79.11;147168.28;5085687;28;20325;-65
2023/01/15 10:58:29;;;;;;;21.83;10.25;;;;;;;-0.69;78.98;147158.13;5085618;28;20100;-63
2023/01/15 11:01:10;;;;;;;22.23;10.18;;;;;;;-0.63;79.32;147173.34;5085545;28;20087;-65
2023/01/15 11:03:39;;;;;;;21.90;9.98;;;;;;;-0.55;78.78;147192.44;5067807;28;20317;-65
2023/01/15 11:06:09;;;;;;;19.25;9.50;;;;;;;-0.58;78.86;147186.09;5085434;28;20060;-67
2023/01/15 11:08:35;;;;;;;18.60;10.35;;;;;;;-0.51;78.31;147202.63;5085669;28;20348;-65
2023/01/15 11:11:17;;;;;;;16.63;10.10;;;;;;;-0.71;77.82;147153.06;5070814;28;20029;-66
2023/01/15 11:19:35;;;;;;;23.35;10.50;;;;;;;-0.57;79.07;147188.63;5085454;28;20028;-67
2023/01/15 11:22:09;;;;;;;17.60;9.57;;;;;;;-0.50;78.55;147203.88;5085583;28;20028;-67
2023/01/15 11:24:54;;;;;;;21.73;9.65;;;;;;;-0.62;77.95;147175.91;5085272;28;20067;-67
2023/01/15 11:27:25;;;;;;;19.95;8.98;;;;;;;-0.70;78.24;147155.56;5085157;28;20289;-67
2023/01/15 11:29:53;;;;;;;19.92;9.55;;;;;;;-0.80;78.61;147130.16;5085244;28;20064;-70
2023/01/15 11:32:36;;;;;;;19.92;9.25;;;;;;;-0.80;78.86;147131.44;5084752;28;20035;-68
2023/01/15 11:35:15;;;;;;;18.13;9.00;;;;;;;-0.73;78.95;147147.97;5084964;28;20035;-66
2023/01/15 11:37:41;;;;;;;16.60;8.73;;;;;;;-0.45;78.09;147216.59;5078474;28;20032;-69
2023/01/15 11:40:18;;;;;;;21.25;9.43;;;;;;;-0.55;77.97;147193.69;5084605;28;20083;-66
2023/01/15 11:51:11;;;;;;;19.83;9.38;;;;;;;-0.53;78.06;147198.81;5084519;28;20032;-69
2023/01/15 11:53:47;;;;;;;19.70;9.25;;;;;;;-0.52;77.99;147201.31;5083865;28;20033;-66
2023/01/15 11:56:16;;;;;;;17.33;8.80;;;;;;;-0.64;77.60;147170.84;5084188;28;20032;-68
2023/01/15 11:58:52;;;;;;;19.27;9.38;;;;;;;-0.60;77.74;147179.72;5084837;28;20032;-68
2023/01/15 12:01:29;;;;;;;16.83;8.98;;;;;;;-0.49;77.66;147206.44;5084085;28;20028;-67
2023/01/15 12:03:55;;;;;;;18.67;8.68;;;;;;;-0.70;77.65;147156.88;5083560;28;20039;-67